Time;durP1;ratioP1;P1;durP2;ratioP2;P2;SDS_P1;SDS_P2;PMS_P1;PMS_P2;Temp;Humidity;BMP_temperature;BMP_pressure;BME280_temperature;BME280_humidity;BME280_pressure;Samples;Min_cycle;Max_cycle;Signal;HPM_P1;HPM_P2
2023/04/21 00:00:22;;;;;;;14.00;8.15;;;;;;;9.69;100.00;101494.44;5044239;28;20096;-84
2023/04/21 00:02:48;;;;;;;14.27;8.63;;;;;;;9.70;100.00;101496.09;5039314;28;20473;-84
2023/04/21 00:05:14;;;;;;;20.58;10.77;;;;;;;9.43;100.00;101486.53;5046472;28;20095;-84
2023/04/21 00:07:40;;;;;;;15.52;8.32;;;;;;;9.59;100.00;101499.75;5037535;28;20075;-84
2023/04/21 00:10:10;;;;;;;13.57;8.48;;;;;;;9.57;100.00;101481.34;5043859;28;20501;-84
2023/04/21 00:12:36;;;;;;;19.85;10.32;;;;;;;9.52;100.00;101483.59;5043563;28;20489;-84
2023/04/21 00:15:02;;;;;;;20.40;11.13;;;;;;;9.35;100.00;101479.91;5039026;28;20103;-84
2023/04/21 00:17:27;;;;;;;23.75;12.68;;;;;;;9.34;100.00;101461.53;5044313;28;20468;-84
2023/04/21 00:19:53;;;;;;;25.33;13.50;;;;;;;9.24;100.00;101461.25;5040754;28;20036;-84
2023/04/21 00:22:18;;;;;;;29.33;14.55;;;;;;;9.21;100.00;101454.34;5041553;28;20067;-84
2023/04/21 00:24:44;;;;;;;27.40;13.93;;;;;;;9.38;100.00;101441.25;5025062;28;20131;-83
2023/04/21 00:27:10;;;;;;;29.27;14.95;;;;;;;9.18;100.00;101445.91;5026434;28;20032;-84
2023/04/21 00:29:36;;;;;;;26.63;14.80;;;;;;;9.27;100.00;101438.97;5031149;28;20020;-84
2023/04/21 00:32:02;;;;;;;32.42;16.40;;;;;;;9.29;100.00;101431.06;5029203;28;20521;-84
2023/04/21 00:34:28;;;;;;;29.15;13.80;;;;;;;9.46;100.00;101429.94;5027426;28;20024;-84
2023/04/21 00:36:53;;;;;;;28.98;14.98;;;;;;;9.38;100.00;101422.50;5044585;28;20025;-84
2023/04/21 00:39:19;;;;;;;25.67;15.10;;;;;;;9.19;100.00;101419.56;5042771;28;20112;-84
2023/04/21 00:41:44;;;;;;;25.92;13.52;;;;;;;9.07;100.00;101423.25;5037187;28;20037;-84
2023/04/21 00:44:10;;;;;;;28.60;15.43;;;;;;;9.19;100.00;101423.19;5021696;28;20116;-83
2023/04/21 00:46:35;;;;;;;29.92;15.23;;;;;;;9.15;100.00;101408.31;5038521;28;20039;-83
2023/04/21 00:49:06;;;;;;;28.35;15.23;;;;;;;9.13;100.00;101405.88;5029234;28;20061;-84
2023/04/21 00:51:33;;;;;;;26.20;13.70;;;;;;;9.21;100.00;101392.91;5032150;28;20037;-83
2023/04/21 00:53:59;;;;;;;31.80;15.80;;;;;;;9.07;100.00;101387.75;5017142;28;20235;-83
2023/04/21 00:56:27;;;;;;;32.28;14.40;;;;;;;9.07;100.00;101393.34;5012280;28;20041;-84
2023/04/21 00:58:52;;;;;;;31.85;14.35;;;;;;;9.10;100.00;101384.22;5037070;28;20039;-84
2023/04/21 01:01:18;;;;;;;29.63;14.98;;;;;;;9.25;100.00;101384.63;5039597;28;20242;-83
2023/04/21 01:03:45;;;;;;;25.45;14.32;;;;;;;9.23;100.00;101387.78;5042032;28;20036;-83
2023/04/21 01:06:10;;;;;;;27.08;14.82;;;;;;;9.07;100.00;101384.16;5017296;28;20040;-83
2023/04/21 01:08:36;;;;;;;26.33;14.88;;;;;;;8.93;100.00;101385.34;5024998;28;20508;-83
2023/04/21 01:11:11;;;;;;;25.45;14.77;;;;;;;8.91;100.00;101372.91;5032615;28;20037;-83
2023/04/21 01:13:37;;;;;;;135.27;32.72;;;;;;;8.98;100.00;101373.13;4997139;28;20462;-83
2023/04/21 01:16:03;;;;;;;30.77;17.17;;;;;;;9.01;100.00;101380.78;5020174;28;20028;-83
2023/04/21 01:18:29;;;;;;;34.47;19.10;;;;;;;8.98;100.00;101373.13;5035339;28;20139;-83
2023/04/21 01:20:54;;;;;;;41.40;20.67;;;;;;;9.00;100.00;101370.78;5021941;28;20087;-83
2023/04/21 01:23:20;;;;;;;35.53;20.20;;;;;;;8.92;100.00;101372.56;5036690;28;20024;-83
2023/04/21 01:25:46;;;;;;;36.92;19.20;;;;;;;8.99;100.00;101374.75;5024625;28;20033;-83
2023/04/21 01:28:11;;;;;;;31.38;18.75;;;;;;;8.94;100.00;101375.00;5033065;28;20039;-83
2023/04/21 01:30:37;;;;;;;31.95;18.13;;;;;;;9.03;100.00;101378.44;5034372;28;20508;-83
2023/04/21 01:33:03;;;;;;;33.58;17.70;;;;;;;9.04;100.00;101380.06;5033855;28;20029;-83
2023/04/21 01:35:28;;;;;;;40.08;20.05;;;;;;;8.78;100.00;101368.53;5031805;28;20431;-83
2023/04/21 01:37:54;;;;;;;32.08;18.80;;;;;;;8.78;100.00;101368.53;5016310;28;20208;-83
2023/04/21 01:40:19;;;;;;;35.90;19.10;;;;;;;8.91;100.00;101370.13;5033699;28;20029;-83
2023/04/21 01:42:45;;;;;;;40.95;19.10;;;;;;;8.92;100.00;101366.97;5019158;28;20033;-83
2023/04/21 01:45:11;;;;;;;40.03;19.50;;;;;;;8.93;100.00;101373.38;5039296;28;20152;-83
2023/04/21 01:47:36;;;;;;;32.17;18.25;;;;;;;8.79;100.00;101367.38;5036758;28;20056;-83
2023/04/21 01:50:02;;;;;;;27.27;17.48;;;;;;;8.94;100.00;101364.66;5030025;28;20028;-83
2023/04/21 01:52:28;;;;;;;35.15;20.15;;;;;;;8.95;100.00;101362.66;5025815;28;20424;-83
2023/04/21 01:54:54;;;;;;;33.00;17.70;;;;;;;8.94;100.00;101363.84;5035079;28;20029;-83
2023/04/21 01:57:19;;;;;;;32.90;18.15;;;;;;;8.87;100.00;101363.63;5016979;28;20445;-83
2023/04/21 01:59:45;;;;;;;35.28;16.92;;;;;;;8.95;100.00;101363.47;5021393;28;20048;-83
2023/04/21 02:02:11;;;;;;;34.30;18.95;;;;;;;8.93;100.00;101360.22;5037296;28;20028;-83
2023/04/21 02:04:36;;;;;;;33.45;17.90;;;;;;;8.93;100.00;101362.19;5039808;28;20033;-83
2023/04/21 02:07:02;;;;;;;31.67;17.10;;;;;;;8.88;100.00;101370.84;5019691;28;20060;-83
2023/04/21 02:09:27;;;;;;;35.67;18.02;;;;;;;8.89;100.00;101373.25;5039665;28;20033;-83
2023/04/21 02:11:54;;;;;;;34.67;17.45;;;;;;;8.98;100.00;101387.09;5037578;28;20043;-83
2023/04/21 02:14:20;;;;;;;29.23;18.15;;;;;;;9.00;100.00;101381.94;5034924;28;20108;-83
2023/04/21 02:16:45;;;;;;;31.52;18.13;;;;;;;9.00;100.00;101384.72;5030688;28;20037;-83
2023/04/21 02:19:10;;;;;;;35.67;18.08;;;;;;;8.99;100.00;101385.09;5031071;28;20130;-83
2023/04/21 02:21:36;;;;;;;36.78;18.60;;;;;;;8.89;100.00;101386.41;5030023;28;20485;-83
2023/04/21 02:24:01;;;;;;;29.65;17.42;;;;;;;8.91;100.00;101378.50;5033501;28;20042;-84
2023/04/21 02:26:26;;;;;;;35.35;18.25;;;;;;;8.93;100.00;101385.34;5033552;28;20672;-83
2023/04/21 02:28:52;;;;;;;25.50;16.40;;;;;;;9.08;100.00;101389.34;5018186;28;20029;-83
2023/04/21 02:31:19;;;;;;;31.35;18.38;;;;;;;9.18;100.00;101387.25;5017790;28;20183;-83
2023/04/21 02:33:44;;;;;;;29.40;17.02;;;;;;;9.13;100.00;101372.34;5034628;28;20025;-82
2023/04/21 02:36:10;;;;;;;26.48;17.15;;;;;;;9.15;100.00;101380.38;5017846;28;20511;-84
2023/04/21 02:38:35;;;;;;;30.10;16.50;;;;;;;9.18;100.00;101378.88;5017444;28;20029;-83
2023/04/21 02:41:01;;;;;;;32.63;17.98;;;;;;;9.10;100.00;101377.84;5033258;28;20028;-83
2023/04/21 02:43:26;;;;;;;32.85;15.98;;;;;;;9.13;100.00;101372.34;5030409;28;20060;-83
2023/04/21 02:45:52;;;;;;;34.83;17.10;;;;;;;9.09;100.00;101371.44;5025782;28;20041;-83
2023/04/21 02:48:21;;;;;;;29.60;17.77;;;;;;;8.99;100.00;101371.16;5029948;28;20086;-82
2023/04/21 02:50:51;;;;;;;24.55;15.90;;;;;;;9.09;100.00;101374.25;5026087;28;20467;-83
2023/04/21 02:53:17;;;;;;;30.73;16.10;;;;;;;9.20;100.00;101382.13;5010644;28;20469;-84
2023/04/21 02:55:43;;;;;;;32.33;17.75;;;;;;;9.28;100.00;101372.75;5027557;28;20714;-83
2023/04/21 02:58:08;;;;;;;36.03;18.00;;;;;;;9.15;100.00;101372.00;5029791;28;20032;-84
2023/04/21 03:00:33;;;;;;;32.65;17.85;;;;;;;9.23;100.00;101381.38;5031828;28;20378;-83
2023/04/21 03:02:58;;;;;;;32.17;16.52;;;;;;;9.22;100.00;101379.78;5033452;28;20445;-83
2023/04/21 03:05:24;;;;;;;29.48;16.45;;;;;;;9.23;100.00;101381.38;5010123;28;20042;-83
2023/04/21 03:07:49;;;;;;;30.92;17.05;;;;;;;9.23;100.00;101381.38;5011051;28;20451;-83
2023/04/21 03:10:15;;;;;;;30.63;16.10;;;;;;;9.22;100.00;101385.38;5030593;28;20402;-83
2023/04/21 03:12:40;;;;;;;30.45;16.48;;;;;;;9.22;100.00;101379.78;5015527;28;20060;-83
2023/04/21 03:15:06;;;;;;;29.23;15.88;;;;;;;9.28;100.00;101383.94;5015471;28;20017;-83
2023/04/21 03:17:31;;;;;;;28.83;16.83;;;;;;;9.25;100.00;101381.84;5029701;28;20084;-83
2023/04/21 03:19:57;;;;;;;28.60;15.35;;;;;;;9.26;100.00;101384.28;5031019;28;20040;-83
2023/04/21 03:22:22;;;;;;;31.75;18.02;;;;;;;9.27;100.00;101393.47;5025301;28;20064;-84
2023/04/21 03:24:47;;;;;;;30.98;16.67;;;;;;;9.28;100.00;101383.94;5033127;28;20021;-84
2023/04/21 03:27:13;;;;;;;26.38;15.00;;;;;;;9.30;100.00;101388.00;5027879;28;20033;-84
2023/04/21 03:29:38;;;;;;;25.02;16.95;;;;;;;9.30;100.00;101389.97;5029951;28;20275;-84
2023/04/21 03:32:03;;;;;;;31.92;16.20;;;;;;;9.29;100.00;101380.75;5018081;28;20061;-84
2023/04/21 03:34:29;;;;;;;32.50;17.45;;;;;;;9.31;100.00;101386.81;5035784;28;20052;-84
2023/04/21 03:36:54;;;;;;;25.20;15.70;;;;;;;9.29;100.00;101385.53;5037419;28;20095;-83
2023/04/21 03:39:20;;;;;;;29.58;16.15;;;;;;;9.32;100.00;101393.22;5038681;28;20875;-83
2023/04/21 03:41:46;;;;;;;26.15;16.13;;;;;;;9.34;100.00;101388.09;5037731;28;20068;-83
2023/04/21 03:44:11;;;;;;;28.63;15.77;;;;;;;9.32;100.00;101396.03;5028627;28;20041;-83
2023/04/21 03:46:36;;;;;;;26.95;15.52;;;;;;;9.31;100.00;101394.38;5036519;28;20051;-83
2023/04/21 03:49:02;;;;;;;25.67;16.08;;;;;;;9.32;100.00;101396.03;5038749;28;20048;-83
2023/04/21 03:51:27;;;;;;;30.45;16.60;;;;;;;9.29;100.00;101393.94;5041106;28;20052;-83
2023/04/21 03:53:53;;;;;;;26.00;15.82;;;;;;;9.37;100.00;101392.97;5028780;28;20024;-83
2023/04/21 03:56:18;;;;;;;30.80;15.85;;;;;;;9.38;100.00;101388.97;5024665;28;20546;-84
2023/04/21 03:58:43;;;;;;;23.88;14.20;;;;;;;9.40;100.00;101397.81;5044890;28;20463;-84
2023/04/21 04:01:09;;;;;;;23.55;14.30;;;;;;;9.42;100.00;101394.69;5039199;28;20037;-84
2023/04/21 04:03:34;;;;;;;23.88;14.80;;;;;;;9.43;100.00;101391.53;5043067;28;20029;-84
2023/04/21 04:06:01;;;;;;;27.63;16.02;;;;;;;9.35;100.00;101389.72;5025526;28;20048;-84
2023/04/21 04:08:26;;;;;;;29.35;16.52;;;;;;;9.39;100.00;101385.03;5023952;28;20044;-84
2023/04/21 04:10:52;;;;;;;24.00;15.25;;;;;;;9.43;100.00;101396.31;5040640;28;20024;-84
2023/04/21 04:13:17;;;;;;;23.27;14.20;;;;;;;9.46;100.00;101390.00;5043323;28;20032;-83
2023/04/21 04:15:43;;;;;;;27.60;15.88;;;;;;;9.42;100.00;101389.91;5023701;28;20526;-85
2023/04/21 04:18:08;;;;;;;23.05;14.52;;;;;;;9.35;100.00;101384.13;5024960;28;20033;-84
2023/04/21 04:20:33;;;;;;;27.98;16.88;;;;;;;9.42;100.00;101381.50;5037541;28;20029;-84
2023/04/21 04:22:59;;;;;;;26.95;15.55;;;;;;;9.38;100.00;101382.59;5046844;28;20090;-83
2023/04/21 04:25:24;;;;;;;29.02;14.70;;;;;;;9.44;100.00;101368.00;5026763;28;20124;-83
2023/04/21 04:27:50;;;;;;;24.38;14.77;;;;;;;9.35;100.00;101373.75;5030270;28;20024;-84
2023/04/21 04:30:15;;;;;;;26.55;14.77;;;;;;;9.44;100.00;101376.38;5036770;28;20508;-84
2023/04/21 04:32:41;;;;;;;25.75;14.73;;;;;;;9.45;100.00;101383.59;5033943;28;20497;-83
2023/04/21 04:35:08;;;;;;;29.23;16.77;;;;;;;9.41;100.00;101377.09;5032640;28;20029;-83
2023/04/21 04:37:36;;;;;;;25.55;15.70;;;;;;;9.39;100.00;101384.22;5032987;28;20102;-83
2023/04/21 04:40:06;;;;;;;25.80;15.43;;;;;;;9.39;100.00;101382.25;5036042;28;20017;-83
2023/04/21 04:42:32;;;;;;;23.85;15.00;;;;;;;9.34;100.00;101386.13;5031027;28;20093;-83
2023/04/21 04:45:00;;;;;;;27.00;16.27;;;;;;;9.35;100.00;101378.53;5028198;28;20746;-83
2023/04/21 04:47:25;;;;;;;23.63;13.40;;;;;;;9.39;100.00;101382.25;5015159;28;20029;-83
2023/04/21 04:49:51;;;;;;;23.65;14.07;;;;;;;9.35;100.00;101384.94;5035424;28;20029;-84
2023/04/21 04:52:16;;;;;;;20.67;13.75;;;;;;;9.37;100.00;101370.59;5040690;28;20095;-83
2023/04/21 04:54:41;;;;;;;23.25;14.75;;;;;;;9.33;100.00;101387.25;5019979;28;20380;-83
2023/04/21 04:57:07;;;;;;;20.95;12.77;;;;;;;9.52;100.00;101394.97;5012541;28;20692;-84
2023/04/21 04:59:32;;;;;;;21.83;13.70;;;;;;;9.37;100.00;101384.59;5026191;28;20594;-83
2023/04/21 05:01:58;;;;;;;22.88;14.55;;;;;;;9.40;100.00;101391.44;5019328;28;20485;-83
2023/04/21 05:04:24;;;;;;;23.17;13.27;;;;;;;9.36;100.00;101396.94;5042513;28;20062;-84
2023/04/21 05:06:49;;;;;;;25.05;13.07;;;;;;;9.40;100.00;101383.84;5038126;28;20037;-84
2023/04/21 05:09:15;;;;;;;26.25;14.43;;;;;;;9.34;100.00;101382.50;5016616;28;20036;-83
2023/04/21 05:11:41;;;;;;;21.38;14.18;;;;;;;9.34;100.00;101388.09;5029647;28;20033;-83
2023/04/21 05:14:06;;;;;;;26.67;14.43;;;;;;;9.39;100.00;101401.81;5031888;28;20120;-83
2023/04/21 05:16:33;;;;;;;21.60;13.48;;;;;;;9.41;100.00;101393.88;5008719;28;20025;-83
2023/04/21 05:19:00;;;;;;;21.80;13.70;;;;;;;9.41;100.00;101401.44;5032509;28;20435;-83
2023/04/21 05:21:27;;;;;;;23.65;13.63;;;;;;;9.43;100.00;101397.13;5031670;28;20484;-83
2023/04/21 05:23:56;;;;;;;25.05;13.15;;;;;;;9.36;100.00;101396.94;5021756;28;20102;-83
2023/04/21 05:26:23;;;;;;;22.35;13.52;;;;;;;9.40;100.00;101397.81;5027866;28;20376;-83
2023/04/21 05:28:48;;;;;;;22.58;14.48;;;;;;;9.43;100.00;101394.31;5039612;28;20028;-83
2023/04/21 05:31:13;;;;;;;20.67;12.18;;;;;;;9.49;100.00;101398.50;5033569;28;20024;-83
2023/04/21 05:33:39;;;;;;;25.35;14.77;;;;;;;9.40;100.00;101397.81;5025522;28;20025;-83
2023/04/21 05:36:08;;;;;;;23.30;13.27;;;;;;;9.54;100.00;101392.63;5025700;28;20070;-84
2023/04/21 05:38:35;;;;;;;23.40;12.43;;;;;;;9.49;100.00;101394.88;5033446;28;20079;-83
2023/04/21 05:41:00;;;;;;;26.50;14.23;;;;;;;9.55;100.00;101396.25;5041203;28;20021;-83
2023/04/21 05:43:26;;;;;;;24.83;12.82;;;;;;;9.57;100.00;101411.50;5031370;28;20033;-83
2023/04/21 05:45:51;;;;;;;28.55;14.27;;;;;;;9.59;100.00;101404.72;5024833;28;20055;-83
2023/04/21 05:48:16;;;;;;;24.10;11.80;;;;;;;9.63;100.00;101398.03;5037696;28;20039;-83
2023/04/21 05:50:42;;;;;;;19.02;11.88;;;;;;;9.66;100.00;101410.50;5021631;28;20756;-83
2023/04/21 05:53:07;;;;;;;20.23;11.30;;;;;;;9.66;100.00;101400.13;5020980;28;20076;-82
2023/04/21 05:55:33;;;;;;;21.73;13.65;;;;;;;9.64;100.00;101396.09;5029703;28;20760;-83
2023/04/21 05:57:59;;;;;;;19.63;12.25;;;;;;;9.66;100.00;101399.34;5028840;28;20025;-83
2023/04/21 06:00:24;;;;;;;22.83;13.40;;;;;;;10.04;100.00;101401.50;5030195;28;20047;-81
2023/04/21 06:02:49;;;;;;;24.13;12.70;;;;;;;10.17;100.00;101405.81;5021991;28;20057;-75
2023/04/21 06:05:17;;;;;;;23.58;13.60;;;;;;;10.37;100.00;101401.13;5033381;28;20054;-81
2023/04/21 06:07:42;;;;;;;22.75;13.82;;;;;;;9.98;100.00;101400.94;5039792;28;20040;-85
2023/04/21 06:10:08;;;;;;;19.70;12.75;;;;;;;10.16;100.00;101406.16;5042700;28;20035;-88
2023/04/21 06:12:33;;;;;;;22.20;13.02;;;;;;;9.97;100.00;101406.91;5046286;28;20059;-89
2023/04/21 06:14:58;;;;;;;25.27;14.63;;;;;;;9.93;100.00;101409.63;5048257;28;20029;-88
2023/04/21 06:17:24;;;;;;;24.02;13.68;;;;;;;9.91;100.00;101409.16;5042759;28;20161;-89
2023/04/21 06:19:52;;;;;;;22.88;13.15;;;;;;;9.89;100.00;101403.13;5032177;28;20025;-88
2023/04/21 06:22:24;;;;;;;21.27;12.60;;;;;;;9.95;100.00;101406.44;5041642;28;20021;-89
2023/04/21 06:24:50;;;;;;;24.55;13.45;;;;;;;9.94;100.00;101400.06;5024548;28;20021;-89
2023/04/21 06:27:15;;;;;;;19.80;12.35;;;;;;;9.94;100.00;101408.44;5032683;28;20039;-89
2023/04/21 06:29:42;;;;;;;26.15;13.30;;;;;;;10.06;100.00;101413.13;5025967;28;20044;-89
2023/04/21 06:32:11;;;;;;;25.08;12.38;;;;;;;10.05;100.00;101411.50;5038686;28;20036;-89
2023/04/21 06:34:36;;;;;;;21.15;12.63;;;;;;;10.01;100.00;101398.59;5027414;28;20500;-85
2023/04/21 06:37:02;;;;;;;23.77;13.30;;;;;;;10.11;100.00;101412.06;5045615;28;20022;-85
2023/04/21 06:39:27;;;;;;;23.45;13.65;;;;;;;10.15;100.00;101412.94;5029686;28;20037;-85
2023/04/21 06:41:53;;;;;;;22.95;12.45;;;;;;;10.27;100.00;101424.03;5028378;28;20029;-85
2023/04/21 06:44:19;;;;;;;22.00;14.05;;;;;;;10.50;100.00;101407.44;5046229;28;20481;-88
2023/04/21 06:46:45;;;;;;;25.48;13.13;;;;;;;10.58;100.00;101405.59;5025225;28;20040;-89
2023/04/21 06:49:11;;;;;;;20.83;12.25;;;;;;;10.51;100.00;101399.84;5024420;28;20124;-88
2023/04/21 06:51:37;;;;;;;21.75;12.95;;;;;;;10.48;100.00;101406.19;5029510;28;20517;-88
2023/04/21 06:54:02;;;;;;;19.42;11.85;;;;;;;10.44;100.00;101405.28;5024351;28;20025;-89
2023/04/21 06:56:29;;;;;;;26.30;13.40;;;;;;;10.42;100.00;101396.44;5028001;28;20074;-87
2023/04/21 06:58:55;;;;;;;19.38;13.10;;;;;;;10.36;100.00;101388.31;5021742;28;20063;-88
2023/04/21 07:01:20;;;;;;;22.85;13.23;;;;;;;10.40;100.00;101399.59;5039087;28;20022;-89
2023/04/21 07:03:45;;;;;;;21.77;14.13;;;;;;;10.44;100.00;101394.09;5042014;28;20040;-89
2023/04/21 07:06:11;;;;;;;19.52;12.52;;;;;;;10.54;100.00;101399.09;5045936;28;20041;-89
2023/04/21 07:08:37;;;;;;;19.42;13.10;;;;;;;10.45;100.00;101387.31;5044990;28;20025;-89
2023/04/21 07:11:02;;;;;;;17.45;10.93;;;;;;;10.89;100.00;101385.06;5029625;28;20532;-81
2023/04/21 07:13:28;;;;;;;20.80;10.70;;;;;;;11.81;100.00;101373.22;5038429;28;20053;-81
2023/04/21 07:15:53;;;;;;;20.65;12.90;;;;;;;11.43;100.00;101383.34;5019223;28;20037;-81
2023/04/21 07:18:19;;;;;;;23.50;12.90;;;;;;;11.03;100.00;101390.19;5023525;28;20037;-86
2023/04/21 07:20:45;;;;;;;27.02;15.00;;;;;;;10.71;100.00;101387.50;5031766;28;20033;-86
2023/04/21 07:23:10;;;;;;;25.92;14.15;;;;;;;10.77;100.00;101386.03;5034514;28;20029;-85
2023/04/21 07:25:36;;;;;;;22.35;12.93;;;;;;;10.67;100.00;101392.22;5038687;28;20523;-85
2023/04/21 07:28:02;;;;;;;21.63;12.93;;;;;;;10.72;100.00;101391.91;5042234;28;20044;-86
2023/04/21 07:30:28;;;;;;;19.55;12.70;;;;;;;10.72;100.00;101394.72;5025652;28;20486;-85
2023/04/21 07:32:54;;;;;;;25.15;14.63;;;;;;;10.69;100.00;101400.22;5030075;28;20028;-86
2023/04/21 07:35:20;;;;;;;23.17;12.88;;;;;;;10.68;100.00;101398.63;5032341;28;20084;-86
2023/04/21 07:37:45;;;;;;;24.13;13.93;;;;;;;10.66;100.00;101398.19;5043810;28;20070;-86
2023/04/21 07:40:11;;;;;;;24.45;14.05;;;;;;;10.72;100.00;101394.72;5042384;28;20029;-86
2023/04/21 07:42:37;;;;;;;21.20;12.60;;;;;;;10.78;100.00;101390.44;5041137;28;20115;-86
2023/04/21 07:45:03;;;;;;;23.08;13.43;;;;;;;10.88;100.00;101385.44;5046109;28;20366;-85
2023/04/21 07:47:28;;;;;;;21.20;13.75;;;;;;;10.93;100.00;101390.75;5026644;28;20029;-85
2023/04/21 07:49:54;;;;;;;25.52;14.43;;;;;;;10.99;100.00;101394.91;5049097;28;20401;-85
2023/04/21 07:52:19;;;;;;;28.02;15.10;;;;;;;11.06;100.00;101389.44;5031045;28;20029;-86
2023/04/21 07:54:45;;;;;;;24.88;15.25;;;;;;;11.11;100.00;101389.16;5026099;28;20029;-85
2023/04/21 07:57:10;;;;;;;25.98;14.95;;;;;;;11.17;100.00;101370.03;5033893;28;20082;-85
2023/04/21 07:59:35;;;;;;;20.17;14.05;;;;;;;11.29;100.00;101388.69;5043685;28;20021;-86
2023/04/21 08:02:01;;;;;;;23.42;14.27;;;;;;;11.25;100.00;101382.19;5024742;28;20021;-85
2023/04/21 08:04:26;;;;;;;25.23;13.82;;;;;;;11.34;100.00;101386.41;5045915;28;20452;-85
2023/04/21 08:06:52;;;;;;;24.02;14.48;;;;;;;11.32;100.00;101380.34;5041319;28;20073;-85
2023/04/21 08:09:17;;;;;;;26.30;14.88;;;;;;;11.41;100.00;101391.31;5041087;28;20039;-85
2023/04/21 08:11:43;;;;;;;30.00;14.73;;;;;;;11.44;100.00;101390.56;5022629;28;20039;-85
2023/04/21 08:14:10;;;;;;;21.48;13.18;;;;;;;11.44;100.00;101384.97;5038126;28;20041;-86
2023/04/21 08:16:37;;;;;;;22.90;15.10;;;;;;;11.53;100.00;101382.75;5037146;28;20025;-86
2023/04/21 08:19:02;;;;;;;23.88;14.80;;;;;;;11.55;100.00;101386.00;5039395;28;20040;-86
2023/04/21 08:21:28;;;;;;;22.90;14.18;;;;;;;11.67;100.00;101389.78;5030477;28;20022;-86
2023/04/21 08:23:54;;;;;;;28.38;15.40;;;;;;;11.72;100.00;101386.66;5023996;28;20470;-86
2023/04/21 08:26:21;;;;;;;29.92;14.88;;;;;;;11.92;100.00;101391.06;5036163;28;20025;-86
2023/04/21 08:28:50;;;;;;;25.15;15.10;;;;;;;12.07;100.00;101394.13;5029206;28;20431;-86
2023/04/21 08:31:16;;;;;;;29.17;15.25;;;;;;;12.11;100.00;101395.00;5032277;28;20067;-86
2023/04/21 08:33:42;;;;;;;21.73;14.23;;;;;;;12.11;100.00;101383.75;5052522;28;20103;-85
2023/04/21 08:36:08;;;;;;;31.63;15.88;;;;;;;12.10;100.00;101390.56;5039455;28;20508;-86
2023/04/21 08:38:34;;;;;;;28.92;16.42;;;;;;;12.06;100.00;101390.50;5030770;28;20021;-86
2023/04/21 08:41:00;;;;;;;26.33;15.00;;;;;;;12.15;100.00;101390.25;5047123;28;20025;-85
2023/04/21 08:43:27;;;;;;;28.25;14.23;;;;;;;12.17;100.00;101385.06;5035399;28;20084;-86
2023/04/21 08:45:54;;;;;;;24.50;14.32;;;;;;;12.12;100.00;101379.75;5045765;28;20021;-86
2023/04/21 08:48:22;;;;;;;24.30;14.48;;;;;;;12.14;100.00;101372.59;5029883;28;20131;-85
2023/04/21 08:50:49;;;;;;;23.88;14.25;;;;;;;12.20;100.00;101381.50;5033487;28;20025;-86
2023/04/21 08:53:15;;;;;;;25.92;15.50;;;;;;;12.29;100.00;101384.88;5043235;28;20071;-86
2023/04/21 08:55:41;;;;;;;26.80;14.82;;;;;;;12.33;100.00;101379.28;5032053;28;20056;-85
2023/04/21 08:58:08;;;;;;;27.38;14.43;;;;;;;12.42;100.00;101379.84;5046594;28;20418;-85
2023/04/21 09:00:34;;;;;;;27.50;15.23;;;;;;;12.32;100.00;101372.88;5026058;28;20025;-85
2023/04/21 09:03:01;;;;;;;25.65;14.70;;;;;;;12.37;100.00;101380.94;5039607;28;20067;-86
2023/04/21 09:05:29;;;;;;;23.38;14.98;;;;;;;12.28;100.00;101376.81;5052131;28;20037;-86
2023/04/21 09:08:17;;;;;;;26.67;16.00;;;;;;;12.37;100.00;101383.75;5026880;28;20072;-85
2023/04/21 09:10:50;;;;;;;28.63;16.63;;;;;;;12.35;100.00;101383.34;5017712;28;20118;-86
2023/04/21 09:13:17;;;;;;;33.55;17.98;;;;;;;12.33;100.00;101377.31;5044955;28;20504;-85
2023/04/21 09:15:47;;;;;;;36.10;17.17;;;;;;;12.45;100.00;101384.69;5043835;28;20067;-85
2023/04/21 09:18:19;;;;;;;23.33;14.68;;;;;;;12.55;100.00;101369.19;5039754;28;20033;-85
2023/04/21 09:20:46;;;;;;;28.45;15.98;;;;;;;12.55;100.00;101374.81;5044120;28;20035;-85
2023/04/21 09:23:12;;;;;;;28.58;16.58;;;;;;;12.58;100.00;101372.03;5051502;28;20044;-85
2023/04/21 09:25:38;;;;;;;27.40;16.13;;;;;;;12.61;100.00;101368.47;5045691;28;20369;-85
2023/04/21 09:28:08;;;;;;;32.25;18.52;;;;;;;12.70;100.00;101375.81;5045728;28;20147;-86
2023/04/21 09:30:35;;;;;;;30.73;17.60;;;;;;;12.67;100.00;101379.38;5049242;28;20025;-85
2023/04/21 09:33:00;;;;;;;30.55;18.00;;;;;;;12.75;100.00;101372.66;5040546;28;20036;-85
2023/04/21 09:35:32;;;;;;;31.70;16.95;;;;;;;12.81;100.00;101371.94;5047860;28;20029;-85
2023/04/21 09:37:59;;;;;;;29.50;17.90;;;;;;;12.77;100.00;101375.91;5050410;28;20060;-86
2023/04/21 09:40:25;;;;;;;30.40;17.48;;;;;;;12.81;100.00;101371.94;5045062;28;20025;-86
2023/04/21 09:42:50;;;;;;;28.52;17.00;;;;;;;12.86;100.00;101372.81;5044251;28;20508;-85
2023/04/21 09:45:16;;;;;;;41.22;17.27;;;;;;;12.77;100.00;101375.91;5042499;28;20614;-85
2023/04/21 09:47:42;;;;;;;26.48;16.65;;;;;;;12.79;100.00;101371.50;5043607;28;20436;-85
2023/04/21 09:50:10;;;;;;;33.20;18.63;;;;;;;12.70;100.00;101362.56;5026158;28;20037;-85
2023/04/21 09:52:40;;;;;;;29.42;18.58;;;;;;;12.71;100.00;101367.03;5036500;28;20477;-85
2023/04/21 09:55:11;;;;;;;31.20;17.67;;;;;;;12.66;100.00;101358.91;5030731;28;20025;-85
2023/04/21 09:57:42;;;;;;;32.15;17.35;;;;;;;12.66;100.00;101353.28;5040724;28;20078;-85
2023/04/21 10:00:10;;;;;;;30.67;17.55;;;;;;;12.59;100.00;101353.22;5043420;28;20032;-86
2023/04/21 10:03:03;;;;;;;29.55;17.05;;;;;;;12.64;100.00;101354.88;5031067;28;20033;-85
2023/04/21 10:05:29;;;;;;;29.58;18.52;;;;;;;12.60;100.00;101350.00;5030041;28;20037;-85
2023/04/21 10:07:55;;;;;;;33.50;17.20;;;;;;;12.62;100.00;101363.66;5032965;28;20066;-85
2023/04/21 10:10:27;;;;;;;38.15;17.98;;;;;;;12.63;100.00;101356.03;5029522;28;20378;-86
2023/04/21 10:12:53;;;;;;;28.50;17.23;;;;;;;12.68;100.00;101348.09;5046178;28;20390;-85
2023/04/21 10:16:02;;;;;;;29.25;17.20;;;;;;;12.72;100.00;101342.53;5025800;28;20037;-85
2023/04/21 10:18:28;;;;;;;27.40;16.13;;;;;;;12.79;100.00;101349.03;4996922;28;20048;-85
2023/04/21 10:21:01;;;;;;;27.92;17.23;;;;;;;12.86;100.00;101344.69;5048818;28;20055;-86
2023/04/21 10:23:44;;;;;;;28.55;16.27;;;;;;;12.90;100.00;101343.59;5040606;28;20476;-85
2023/04/21 10:26:21;;;;;;;28.33;15.88;;;;;;;12.95;100.00;101337.59;5039797;28;20056;-85
2023/04/21 10:29:08;;;;;;;29.92;17.23;;;;;;;13.03;100.00;101332.91;5043131;28;20033;-86
2023/04/21 10:31:50;;;;;;;29.67;16.13;;;;;;;13.16;100.00;101320.19;5022146;28;20129;-85
2023/04/21 10:34:18;;;;;;;33.72;17.40;;;;;;;13.36;100.00;101326.44;5044583;28;20520;-85
2023/04/21 10:36:55;;;;;;;35.67;17.40;;;;;;;13.51;100.00;101335.00;5027368;28;20017;-85
2023/04/21 10:39:25;;;;;;;30.27;18.73;;;;;;;13.63;100.00;101324.28;5020665;28;20094;-85
2023/04/21 10:41:53;;;;;;;32.45;18.50;;;;;;;13.73;100.00;101330.41;5036501;28;20492;-85
2023/04/21 10:44:20;;;;;;;27.77;17.92;;;;;;;13.72;100.00;101323.16;5016261;28;20460;-86
2023/04/21 10:46:48;;;;;;;31.35;18.17;;;;;;;13.69;100.00;101319.13;5043040;28;20394;-85
2023/04/21 10:49:31;;;;;;;34.42;21.45;;;;;;;13.89;100.00;101316.06;5046756;28;20025;-85
2023/04/21 10:51:56;;;;;;;28.90;18.55;;;;;;;14.03;100.00;101321.78;5024636;28;20029;-86
2023/04/21 10:54:21;;;;;;;28.38;17.05;;;;;;;14.10;100.00;101310.56;5028523;28;20374;-85
2023/04/21 10:56:50;;;;;;;28.75;18.90;;;;;;;14.41;99.55;101317.59;5016703;28;20040;-85
2023/04/21 10:59:17;;;;;;;31.08;17.58;;;;;;;14.41;99.21;101314.78;5029460;28;20082;-85
2023/04/21 11:01:42;;;;;;;27.52;17.98;;;;;;;14.35;98.64;101307.91;5038616;28;20108;-85
2023/04/21 11:04:18;;;;;;;27.48;17.65;;;;;;;14.29;98.92;101312.31;5040616;28;20520;-85